sensor_id;sensor_type;location;lat;lon;timestamp;P1;durP1;ratioP1;P2;durP2;ratioP2
71172;SDS011;58875;51.996;4.504;2023-05-24T00:01:08;4.72;;;4.26;;
71172;SDS011;58875;51.996;4.504;2023-05-24T00:03:34;4.99;;;4.50;;
71172;SDS011;58875;51.996;4.504;2023-05-24T00:06:03;5.05;;;4.56;;
71172;SDS011;58875;51.996;4.504;2023-05-24T00:08:34;5.21;;;4.64;;
71172;SDS011;58875;51.996;4.504;2023-05-24T00:10:59;5.47;;;4.80;;
71172;SDS011;58875;51.996;4.504;2023-05-24T00:13:25;5.73;;;5.01;;
71172;SDS011;58875;51.996;4.504;2023-05-24T00:15:51;5.16;;;4.56;;
71172;SDS011;58875;51.996;4.504;2023-05-24T00:18:17;5.66;;;5.01;;
71172;SDS011;58875;51.996;4.504;2023-05-24T00:20:43;5.04;;;4.64;;
71172;SDS011;58875;51.996;4.504;2023-05-24T00:23:09;5.27;;;4.90;;
71172;SDS011;58875;51.996;4.504;2023-05-24T00:25:35;5.51;;;4.99;;
71172;SDS011;58875;51.996;4.504;2023-05-24T00:28:01;5.49;;;5.02;;
71172;SDS011;58875;51.996;4.504;2023-05-24T00:30:26;5.07;;;4.70;;
71172;SDS011;58875;51.996;4.504;2023-05-24T00:32:52;5.57;;;5.14;;
71172;SDS011;58875;51.996;4.504;2023-05-24T00:35:17;5.49;;;5.02;;
71172;SDS011;58875;51.996;4.504;2023-05-24T00:37:43;5.75;;;5.16;;
71172;SDS011;58875;51.996;4.504;2023-05-24T00:40:12;5.73;;;5.29;;
71172;SDS011;58875;51.996;4.504;2023-05-24T00:42:38;5.17;;;4.79;;
71172;SDS011;58875;51.996;4.504;2023-05-24T00:45:04;5.85;;;5.32;;
71172;SDS011;58875;51.996;4.504;2023-05-24T00:47:31;5.24;;;4.85;;
71172;SDS011;58875;51.996;4.504;2023-05-24T00:49:57;5.22;;;4.86;;
71172;SDS011;58875;51.996;4.504;2023-05-24T00:52:23;5.20;;;4.81;;
71172;SDS011;58875;51.996;4.504;2023-05-24T00:54:49;5.16;;;4.87;;
71172;SDS011;58875;51.996;4.504;2023-05-24T00:57:15;5.08;;;4.73;;
71172;SDS011;58875;51.996;4.504;2023-05-24T00:59:43;4.98;;;4.72;;
71172;SDS011;58875;51.996;4.504;2023-05-24T01:02:09;4.85;;;4.56;;
71172;SDS011;58875;51.996;4.504;2023-05-24T01:04:34;5.02;;;4.68;;
71172;SDS011;58875;51.996;4.504;2023-05-24T01:07:04;5.12;;;4.73;;
71172;SDS011;58875;51.996;4.504;2023-05-24T01:18:12;5.33;;;4.92;;
71172;SDS011;58875;51.996;4.504;2023-05-24T01:20:40;5.04;;;4.73;;
71172;SDS011;58875;51.996;4.504;2023-05-24T01:23:58;5.27;;;4.85;;
71172;SDS011;58875;51.996;4.504;2023-05-24T01:29:04;4.83;;;4.61;;
71172;SDS011;58875;51.996;4.504;2023-05-24T01:31:32;5.13;;;4.72;;
71172;SDS011;58875;51.996;4.504;2023-05-24T01:33:59;5.48;;;5.07;;
71172;SDS011;58875;51.996;4.504;2023-05-24T01:36:25;4.92;;;4.56;;
71172;SDS011;58875;51.996;4.504;2023-05-24T01:38:50;5.28;;;4.92;;
71172;SDS011;58875;51.996;4.504;2023-05-24T01:46:41;4.67;;;4.39;;
71172;SDS011;58875;51.996;4.504;2023-05-24T01:49:21;5.05;;;4.70;;
71172;SDS011;58875;51.996;4.504;2023-05-24T01:51:56;5.49;;;5.07;;
71172;SDS011;58875;51.996;4.504;2023-05-24T01:54:28;5.14;;;4.76;;
71172;SDS011;58875;51.996;4.504;2023-05-24T01:56:58;5.10;;;4.70;;
71172;SDS011;58875;51.996;4.504;2023-05-24T01:59:29;5.24;;;4.82;;
71172;SDS011;58875;51.996;4.504;2023-05-24T02:01:58;5.18;;;4.82;;
71172;SDS011;58875;51.996;4.504;2023-05-24T02:04:23;4.99;;;4.68;;
71172;SDS011;58875;51.996;4.504;2023-05-24T02:06:50;4.69;;;4.39;;
71172;SDS011;58875;51.996;4.504;2023-05-24T02:09:17;5.40;;;5.03;;
71172;SDS011;58875;51.996;4.504;2023-05-24T02:11:42;5.14;;;4.70;;
71172;SDS011;58875;51.996;4.504;2023-05-24T02:14:08;5.11;;;4.63;;
71172;SDS011;58875;51.996;4.504;2023-05-24T02:16:33;5.20;;;4.81;;
71172;SDS011;58875;51.996;4.504;2023-05-24T02:19:07;4.83;;;4.53;;
71172;SDS011;58875;51.996;4.504;2023-05-24T02:21:33;5.13;;;4.72;;
71172;SDS011;58875;51.996;4.504;2023-05-24T02:23:59;5.75;;;5.27;;
71172;SDS011;58875;51.996;4.504;2023-05-24T02:26:24;5.21;;;4.75;;
71172;SDS011;58875;51.996;4.504;2023-05-24T02:28:50;5.02;;;4.64;;
71172;SDS011;58875;51.996;4.504;2023-05-24T02:31:16;5.01;;;4.72;;
71172;SDS011;58875;51.996;4.504;2023-05-24T02:33:42;4.96;;;4.67;;
71172;SDS011;58875;51.996;4.504;2023-05-24T02:36:07;5.43;;;5.03;;
71172;SDS011;58875;51.996;4.504;2023-05-24T02:38:33;5.25;;;4.87;;
71172;SDS011;58875;51.996;4.504;2023-05-24T02:40:59;5.64;;;5.16;;
71172;SDS011;58875;51.996;4.504;2023-05-24T02:43:24;5.80;;;5.42;;
71172;SDS011;58875;51.996;4.504;2023-05-24T02:45:50;5.96;;;5.66;;
71172;SDS011;58875;51.996;4.504;2023-05-24T02:48:15;5.95;;;5.53;;
71172;SDS011;58875;51.996;4.504;2023-05-24T02:50:41;5.66;;;5.27;;
71172;SDS011;58875;51.996;4.504;2023-05-24T02:53:06;5.77;;;5.46;;
71172;SDS011;58875;51.996;4.504;2023-05-24T02:55:32;5.37;;;5.09;;
71172;SDS011;58875;51.996;4.504;2023-05-24T02:57:58;5.61;;;5.34;;
71172;SDS011;58875;51.996;4.504;2023-05-24T03:00:23;5.17;;;4.96;;
71172;SDS011;58875;51.996;4.504;2023-05-24T03:02:49;5.14;;;4.92;;
71172;SDS011;58875;51.996;4.504;2023-05-24T03:05:16;5.47;;;5.17;;
71172;SDS011;58875;51.996;4.504;2023-05-24T03:07:42;5.34;;;5.07;;
71172;SDS011;58875;51.996;4.504;2023-05-24T03:10:08;5.24;;;5.02;;
71172;SDS011;58875;51.996;4.504;2023-05-24T03:12:33;5.13;;;4.93;;
71172;SDS011;58875;51.996;4.504;2023-05-24T03:14:59;4.91;;;4.73;;
71172;SDS011;58875;51.996;4.504;2023-05-24T03:17:25;4.98;;;4.75;;
71172;SDS011;58875;51.996;4.504;2023-05-24T03:19:50;5.26;;;5.00;;
71172;SDS011;58875;51.996;4.504;2023-05-24T03:22:17;5.21;;;4.90;;
71172;SDS011;58875;51.996;4.504;2023-05-24T03:24:43;5.20;;;4.87;;
71172;SDS011;58875;51.996;4.504;2023-05-24T03:27:10;5.31;;;4.93;;
71172;SDS011;58875;51.996;4.504;2023-05-24T03:29:36;5.05;;;4.80;;
71172;SDS011;58875;51.996;4.504;2023-05-24T03:32:01;5.01;;;4.73;;
71172;SDS011;58875;51.996;4.504;2023-05-24T03:34:27;5.22;;;4.97;;
71172;SDS011;58875;51.996;4.504;2023-05-24T03:36:54;4.89;;;4.73;;
71172;SDS011;58875;51.996;4.504;2023-05-24T03:39:19;5.05;;;4.84;;
71172;SDS011;58875;51.996;4.504;2023-05-24T03:41:45;5.38;;;5.14;;
71172;SDS011;58875;51.996;4.504;2023-05-24T03:44:10;5.14;;;4.92;;
71172;SDS011;58875;51.996;4.504;2023-05-24T03:46:36;5.33;;;5.13;;
71172;SDS011;58875;51.996;4.504;2023-05-24T03:49:02;5.05;;;4.84;;
71172;SDS011;58875;51.996;4.504;2023-05-24T03:51:27;5.51;;;5.14;;
71172;SDS011;58875;51.996;4.504;2023-05-24T03:53:56;5.85;;;5.49;;
71172;SDS011;58875;51.996;4.504;2023-05-24T03:56:22;5.90;;;5.60;;
71172;SDS011;58875;51.996;4.504;2023-05-24T03:58:48;5.71;;;5.38;;
71172;SDS011;58875;51.996;4.504;2023-05-24T04:01:15;5.76;;;5.36;;
71172;SDS011;58875;51.996;4.504;2023-05-24T04:03:41;5.34;;;5.03;;
71172;SDS011;58875;51.996;4.504;2023-05-24T04:06:06;5.83;;;5.53;;
71172;SDS011;58875;51.996;4.504;2023-05-24T04:08:32;5.54;;;5.26;;
71172;SDS011;58875;51.996;4.504;2023-05-24T04:10:57;5.29;;;5.13;;
71172;SDS011;58875;51.996;4.504;2023-05-24T04:13:23;5.17;;;5.03;;
71172;SDS011;58875;51.996;4.504;2023-05-24T04:15:48;5.38;;;5.23;;
71172;SDS011;58875;51.996;4.504;2023-05-24T04:18:14;5.31;;;5.20;;
71172;SDS011;58875;51.996;4.504;2023-05-24T04:20:39;5.65;;;5.48;;
71172;SDS011;58875;51.996;4.504;2023-05-24T04:23:05;5.52;;;5.31;;
71172;SDS011;58875;51.996;4.504;2023-05-24T04:25:31;5.68;;;5.35;;
71172;SDS011;58875;51.996;4.504;2023-05-24T04:27:57;5.18;;;4.91;;
71172;SDS011;58875;51.996;4.504;2023-05-24T04:30:24;5.37;;;5.10;;
71172;SDS011;58875;51.996;4.504;2023-05-24T04:32:50;5.90;;;5.54;;
71172;SDS011;58875;51.996;4.504;2023-05-24T04:35:16;5.81;;;5.43;;
71172;SDS011;58875;51.996;4.504;2023-05-24T04:37:44;6.37;;;5.84;;
71172;SDS011;58875;51.996;4.504;2023-05-24T04:40:14;6.54;;;5.94;;
71172;SDS011;58875;51.996;4.504;2023-05-24T04:42:40;6.47;;;5.97;;
71172;SDS011;58875;51.996;4.504;2023-05-24T04:45:06;6.42;;;5.75;;
71172;SDS011;58875;51.996;4.504;2023-05-24T04:47:32;6.56;;;5.89;;
71172;SDS011;58875;51.996;4.504;2023-05-24T04:49:57;6.85;;;6.11;;
71172;SDS011;58875;51.996;4.504;2023-05-24T04:52:23;6.99;;;6.22;;
71172;SDS011;58875;51.996;4.504;2023-05-24T04:54:49;6.93;;;6.15;;
71172;SDS011;58875;51.996;4.504;2023-05-24T04:57:15;6.89;;;6.19;;
71172;SDS011;58875;51.996;4.504;2023-05-24T04:59:42;6.44;;;5.87;;
71172;SDS011;58875;51.996;4.504;2023-05-24T05:02:11;6.87;;;6.12;;
71172;SDS011;58875;51.996;4.504;2023-05-24T05:04:37;6.80;;;6.02;;
71172;SDS011;58875;51.996;4.504;2023-05-24T05:07:05;6.98;;;6.21;;
71172;SDS011;58875;51.996;4.504;2023-05-24T05:09:34;6.83;;;6.27;;
71172;SDS011;58875;51.996;4.504;2023-05-24T05:12:00;7.32;;;6.56;;
71172;SDS011;58875;51.996;4.504;2023-05-24T05:14:27;6.66;;;5.95;;
71172;SDS011;58875;51.996;4.504;2023-05-24T05:16:55;7.14;;;6.36;;
71172;SDS011;58875;51.996;4.504;2023-05-24T05:19:21;6.80;;;6.02;;
71172;SDS011;58875;51.996;4.504;2023-05-24T05:21:54;7.81;;;6.69;;
71172;SDS011;58875;51.996;4.504;2023-05-24T05:24:20;7.30;;;6.30;;
71172;SDS011;58875;51.996;4.504;2023-05-24T05:26:46;7.14;;;6.37;;
71172;SDS011;58875;51.996;4.504;2023-05-24T05:29:11;6.85;;;6.21;;
71172;SDS011;58875;51.996;4.504;2023-05-24T05:31:37;7.74;;;6.75;;
71172;SDS011;58875;51.996;4.504;2023-05-24T05:34:06;7.20;;;6.38;;
71172;SDS011;58875;51.996;4.504;2023-05-24T05:36:34;7.17;;;6.34;;
71172;SDS011;58875;51.996;4.504;2023-05-24T05:39:05;6.59;;;5.86;;
71172;SDS011;58875;51.996;4.504;2023-05-24T05:41:40;6.86;;;6.05;;
71172;SDS011;58875;51.996;4.504;2023-05-24T05:44:10;7.09;;;6.05;;
71172;SDS011;58875;51.996;4.504;2023-05-24T05:46:37;6.87;;;6.02;;
71172;SDS011;58875;51.996;4.504;2023-05-24T05:49:03;7.30;;;6.41;;
71172;SDS011;58875;51.996;4.504;2023-05-24T05:51:33;6.93;;;6.14;;
71172;SDS011;58875;51.996;4.504;2023-05-24T05:53:59;6.43;;;5.76;;
71172;SDS011;58875;51.996;4.504;2023-05-24T05:56:24;7.14;;;6.23;;
71172;SDS011;58875;51.996;4.504;2023-05-24T05:58:51;6.65;;;5.79;;
71172;SDS011;58875;51.996;4.504;2023-05-24T06:01:17;6.37;;;5.69;;
71172;SDS011;58875;51.996;4.504;2023-05-24T06:03:43;6.63;;;5.94;;
71172;SDS011;58875;51.996;4.504;2023-05-24T06:06:08;6.66;;;5.96;;
71172;SDS011;58875;51.996;4.504;2023-05-24T06:08:38;6.81;;;6.03;;
71172;SDS011;58875;51.996;4.504;2023-05-24T06:11:05;6.51;;;5.78;;
71172;SDS011;58875;51.996;4.504;2023-05-24T06:13:45;6.47;;;5.75;;
71172;SDS011;58875;51.996;4.504;2023-05-24T06:16:11;6.68;;;5.78;;
71172;SDS011;58875;51.996;4.504;2023-05-24T06:18:38;7.00;;;5.94;;
71172;SDS011;58875;51.996;4.504;2023-05-24T06:21:04;6.50;;;5.53;;
71172;SDS011;58875;51.996;4.504;2023-05-24T06:23:30;6.77;;;5.86;;
71172;SDS011;58875;51.996;4.504;2023-05-24T06:25:57;6.49;;;5.56;;
71172;SDS011;58875;51.996;4.504;2023-05-24T06:28:23;6.61;;;5.64;;
71172;SDS011;58875;51.996;4.504;2023-05-24T06:30:48;6.66;;;5.67;;
71172;SDS011;58875;51.996;4.504;2023-05-24T06:33:14;6.40;;;5.52;;
71172;SDS011;58875;51.996;4.504;2023-05-24T06:35:40;6.59;;;5.75;;
71172;SDS011;58875;51.996;4.504;2023-05-24T06:38:05;6.13;;;5.55;;
71172;SDS011;58875;51.996;4.504;2023-05-24T06:40:31;6.21;;;5.56;;
71172;SDS011;58875;51.996;4.504;2023-05-24T06:42:57;6.33;;;5.64;;
71172;SDS011;58875;51.996;4.504;2023-05-24T06:45:23;6.24;;;5.57;;
71172;SDS011;58875;51.996;4.504;2023-05-24T06:47:49;6.95;;;6.18;;
71172;SDS011;58875;51.996;4.504;2023-05-24T06:50:18;6.44;;;5.71;;
71172;SDS011;58875;51.996;4.504;2023-05-24T06:52:46;6.00;;;5.28;;
71172;SDS011;58875;51.996;4.504;2023-05-24T06:55:12;5.89;;;5.30;;
71172;SDS011;58875;51.996;4.504;2023-05-24T06:57:44;6.25;;;5.34;;
71172;SDS011;58875;51.996;4.504;2023-05-24T07:00:13;6.70;;;5.65;;
71172;SDS011;58875;51.996;4.504;2023-05-24T07:02:39;6.26;;;5.42;;
71172;SDS011;58875;51.996;4.504;2023-05-24T07:05:08;6.20;;;5.35;;
71172;SDS011;58875;51.996;4.504;2023-05-24T07:07:39;6.20;;;5.34;;
71172;SDS011;58875;51.996;4.504;2023-05-24T07:10:07;5.80;;;5.06;;
71172;SDS011;58875;51.996;4.504;2023-05-24T07:12:34;5.39;;;4.76;;
71172;SDS011;58875;51.996;4.504;2023-05-24T07:15:04;5.73;;;4.98;;
71172;SDS011;58875;51.996;4.504;2023-05-24T07:17:31;5.40;;;4.80;;
71172;SDS011;58875;51.996;4.504;2023-05-24T07:19:57;5.91;;;5.19;;
71172;SDS011;58875;51.996;4.504;2023-05-24T07:22:29;5.87;;;5.16;;
71172;SDS011;58875;51.996;4.504;2023-05-24T07:25:09;5.75;;;4.91;;
71172;SDS011;58875;51.996;4.504;2023-05-24T07:27:35;6.37;;;5.33;;
71172;SDS011;58875;51.996;4.504;2023-05-24T07:30:01;5.94;;;4.95;;
71172;SDS011;58875;51.996;4.504;2023-05-24T07:32:27;5.97;;;4.99;;
71172;SDS011;58875;51.996;4.504;2023-05-24T07:34:53;6.19;;;5.26;;
71172;SDS011;58875;51.996;4.504;2023-05-24T07:37:19;5.69;;;4.82;;
71172;SDS011;58875;51.996;4.504;2023-05-24T07:39:48;5.99;;;5.04;;
71172;SDS011;58875;51.996;4.504;2023-05-24T07:42:14;5.37;;;4.57;;
71172;SDS011;58875;51.996;4.504;2023-05-24T07:44:42;5.08;;;4.37;;
71172;SDS011;58875;51.996;4.504;2023-05-24T07:47:08;5.12;;;4.38;;
71172;SDS011;58875;51.996;4.504;2023-05-24T07:49:36;4.82;;;4.20;;
71172;SDS011;58875;51.996;4.504;2023-05-24T07:52:05;4.95;;;4.26;;
71172;SDS011;58875;51.996;4.504;2023-05-24T07:54:30;5.36;;;4.66;;
71172;SDS011;58875;51.996;4.504;2023-05-24T07:56:56;5.71;;;4.86;;
71172;SDS011;58875;51.996;4.504;2023-05-24T07:59:22;5.67;;;4.87;;
71172;SDS011;58875;51.996;4.504;2023-05-24T08:01:48;6.16;;;5.29;;
71172;SDS011;58875;51.996;4.504;2023-05-24T08:04:18;5.78;;;4.95;;
71172;SDS011;58875;51.996;4.504;2023-05-24T08:06:43;5.53;;;4.66;;
71172;SDS011;58875;51.996;4.504;2023-05-24T08:09:10;5.71;;;4.81;;
71172;SDS011;58875;51.996;4.504;2023-05-24T08:11:36;6.03;;;5.10;;
71172;SDS011;58875;51.996;4.504;2023-05-24T08:14:01;5.61;;;4.85;;
71172;SDS011;58875;51.996;4.504;2023-05-24T08:16:27;5.19;;;4.52;;
71172;SDS011;58875;51.996;4.504;2023-05-24T08:18:56;5.27;;;4.52;;
71172;SDS011;58875;51.996;4.504;2023-05-24T08:21:21;5.54;;;4.60;;
71172;SDS011;58875;51.996;4.504;2023-05-24T08:23:50;5.54;;;4.59;;
71172;SDS011;58875;51.996;4.504;2023-05-24T08:26:16;5.98;;;5.03;;
71172;SDS011;58875;51.996;4.504;2023-05-24T08:28:43;6.04;;;5.06;;
71172;SDS011;58875;51.996;4.504;2023-05-24T08:31:09;6.10;;;5.21;;
71172;SDS011;58875;51.996;4.504;2023-05-24T08:33:35;5.50;;;4.70;;
71172;SDS011;58875;51.996;4.504;2023-05-24T08:36:00;5.59;;;4.73;;
71172;SDS011;58875;51.996;4.504;2023-05-24T08:38:26;6.34;;;5.32;;
71172;SDS011;58875;51.996;4.504;2023-05-24T08:40:52;6.07;;;5.05;;
71172;SDS011;58875;51.996;4.504;2023-05-24T08:43:18;5.76;;;4.98;;
71172;SDS011;58875;51.996;4.504;2023-05-24T08:45:45;5.66;;;4.82;;
71172;SDS011;58875;51.996;4.504;2023-05-24T08:48:13;5.93;;;5.00;;
71172;SDS011;58875;51.996;4.504;2023-05-24T08:50:42;6.34;;;5.20;;
71172;SDS011;58875;51.996;4.504;2023-05-24T08:53:09;6.14;;;5.11;;
71172;SDS011;58875;51.996;4.504;2023-05-24T08:55:35;6.07;;;5.11;;
71172;SDS011;58875;51.996;4.504;2023-05-24T08:58:02;5.60;;;4.76;;
71172;SDS011;58875;51.996;4.504;2023-05-24T09:00:28;5.47;;;4.71;;
71172;SDS011;58875;51.996;4.504;2023-05-24T09:02:56;5.20;;;4.40;;
71172;SDS011;58875;51.996;4.504;2023-05-24T09:05:23;6.00;;;4.92;;
71172;SDS011;58875;51.996;4.504;2023-05-24T09:07:50;6.34;;;5.26;;
71172;SDS011;58875;51.996;4.504;2023-05-24T09:10:17;6.34;;;5.26;;
71172;SDS011;58875;51.996;4.504;2023-05-24T09:12:46;5.59;;;4.71;;
71172;SDS011;58875;51.996;4.504;2023-05-24T09:15:19;5.07;;;4.36;;
71172;SDS011;58875;51.996;4.504;2023-05-24T09:17:45;5.12;;;4.36;;
71172;SDS011;58875;51.996;4.504;2023-05-24T09:20:11;5.03;;;4.36;;
71172;SDS011;58875;51.996;4.504;2023-05-24T09:22:37;4.92;;;4.32;;
71172;SDS011;58875;51.996;4.504;2023-05-24T09:25:07;5.16;;;4.44;;
71172;SDS011;58875;51.996;4.504;2023-05-24T09:27:34;5.89;;;4.87;;
71172;SDS011;58875;51.996;4.504;2023-05-24T09:30:00;5.72;;;4.65;;
71172;SDS011;58875;51.996;4.504;2023-05-24T09:32:29;5.94;;;4.82;;
71172;SDS011;58875;51.996;4.504;2023-05-24T09:34:56;5.89;;;4.91;;
71172;SDS011;58875;51.996;4.504;2023-05-24T09:37:23;6.31;;;5.20;;
71172;SDS011;58875;51.996;4.504;2023-05-24T09:39:53;6.19;;;5.10;;
71172;SDS011;58875;51.996;4.504;2023-05-24T09:42:25;5.53;;;4.59;;
71172;SDS011;58875;51.996;4.504;2023-05-24T09:45:10;5.59;;;4.74;;
71172;SDS011;58875;51.996;4.504;2023-05-24T09:47:37;4.58;;;4.05;;
71172;SDS011;58875;51.996;4.504;2023-05-24T09:50:14;4.60;;;4.14;;
71172;SDS011;58875;51.996;4.504;2023-05-24T09:52:44;5.00;;;4.36;;
71172;SDS011;58875;51.996;4.504;2023-05-24T09:55:13;5.12;;;4.40;;
71172;SDS011;58875;51.996;4.504;2023-05-24T09:57:41;4.71;;;4.14;;
71172;SDS011;58875;51.996;4.504;2023-05-24T10:00:08;4.36;;;3.89;;
71172;SDS011;58875;51.996;4.504;2023-05-24T10:02:43;4.44;;;3.91;;
71172;SDS011;58875;51.996;4.504;2023-05-24T10:05:10;4.34;;;3.83;;
71172;SDS011;58875;51.996;4.504;2023-05-24T10:07:36;5.12;;;4.47;;
71172;SDS011;58875;51.996;4.504;2023-05-24T10:10:03;4.98;;;4.37;;
71172;SDS011;58875;51.996;4.504;2023-05-24T10:12:29;4.79;;;4.18;;
71172;SDS011;58875;51.996;4.504;2023-05-24T10:14:55;4.98;;;4.35;;
71172;SDS011;58875;51.996;4.504;2023-05-24T10:17:22;4.64;;;3.98;;
71172;SDS011;58875;51.996;4.504;2023-05-24T10:19:52;4.72;;;4.07;;
71172;SDS011;58875;51.996;4.504;2023-05-24T10:22:17;4.77;;;4.14;;
71172;SDS011;58875;51.996;4.504;2023-05-24T10:24:48;4.94;;;4.28;;
71172;SDS011;58875;51.996;4.504;2023-05-24T10:27:19;4.98;;;4.32;;
71172;SDS011;58875;51.996;4.504;2023-05-24T10:29:58;4.55;;;4.04;;
71172;SDS011;58875;51.996;4.504;2023-05-24T10:32:30;4.66;;;4.07;;
71172;SDS011;58875;51.996;4.504;2023-05-24T10:35:01;4.46;;;3.90;;
71172;SDS011;58875;51.996;4.504;2023-05-24T10:37:30;4.44;;;3.96;;
71172;SDS011;58875;51.996;4.504;2023-05-24T10:39:56;4.24;;;3.77;;
71172;SDS011;58875;51.996;4.504;2023-05-24T10:42:24;4.54;;;4.03;;
71172;SDS011;58875;51.996;4.504;2023-05-24T10:44:50;4.90;;;4.36;;
71172;SDS011;58875;51.996;4.504;2023-05-24T10:47:16;4.83;;;4.30;;
71172;SDS011;58875;51.996;4.504;2023-05-24T10:49:51;5.15;;;4.49;;
71172;SDS011;58875;51.996;4.504;2023-05-24T10:52:21;5.02;;;4.32;;
71172;SDS011;58875;51.996;4.504;2023-05-24T10:55:05;4.66;;;4.15;;
71172;SDS011;58875;51.996;4.504;2023-05-24T10:57:33;4.47;;;4.03;;
71172;SDS011;58875;51.996;4.504;2023-05-24T11:03:07;4.71;;;4.07;;
71172;SDS011;58875;51.996;4.504;2023-05-24T11:05:35;4.57;;;3.98;;
71172;SDS011;58875;51.996;4.504;2023-05-24T11:08:31;5.06;;;4.36;;
71172;SDS011;58875;51.996;4.504;2023-05-24T11:13:30;5.07;;;4.49;;
71172;SDS011;58875;51.996;4.504;2023-05-24T11:15:58;4.89;;;4.32;;
71172;SDS011;58875;51.996;4.504;2023-05-24T11:18:24;4.99;;;4.45;;
71172;SDS011;58875;51.996;4.504;2023-05-24T11:20:50;4.95;;;4.34;;
71172;SDS011;58875;51.996;4.504;2023-05-24T11:23:16;5.21;;;4.49;;
71172;SDS011;58875;51.996;4.504;2023-05-24T11:25:46;4.42;;;3.82;;
71172;SDS011;58875;51.996;4.504;2023-05-24T11:28:12;4.64;;;4.06;;
71172;SDS011;58875;51.996;4.504;2023-05-24T11:30:39;4.49;;;3.93;;
71172;SDS011;58875;51.996;4.504;2023-05-24T11:33:21;4.37;;;3.97;;
71172;SDS011;58875;51.996;4.504;2023-05-24T11:35:52;4.51;;;4.12;;
71172;SDS011;58875;51.996;4.504;2023-05-24T11:38:19;4.64;;;4.14;;
71172;SDS011;58875;51.996;4.504;2023-05-24T11:40:46;4.58;;;3.92;;
71172;SDS011;58875;51.996;4.504;2023-05-24T11:43:14;4.81;;;4.13;;
71172;SDS011;58875;51.996;4.504;2023-05-24T11:45:41;5.11;;;4.39;;
71172;SDS011;58875;51.996;4.504;2023-05-24T11:48:09;4.84;;;4.16;;
71172;SDS011;58875;51.996;4.504;2023-05-24T11:50:42;5.11;;;4.42;;
71172;SDS011;58875;51.996;4.504;2023-05-24T11:53:10;5.18;;;4.58;;
71172;SDS011;58875;51.996;4.504;2023-05-24T11:55:37;5.08;;;4.58;;
71172;SDS011;58875;51.996;4.504;2023-05-24T11:58:13;4.99;;;4.53;;
71172;SDS011;58875;51.996;4.504;2023-05-24T12:00:47;4.49;;;4.06;;
71172;SDS011;58875;51.996;4.504;2023-05-24T12:03:14;4.87;;;4.34;;
71172;SDS011;58875;51.996;4.504;2023-05-24T12:05:41;5.07;;;4.49;;
71172;SDS011;58875;51.996;4.504;2023-05-24T12:08:07;5.50;;;4.70;;
71172;SDS011;58875;51.996;4.504;2023-05-24T12:10:40;5.25;;;4.62;;
71172;SDS011;58875;51.996;4.504;2023-05-24T12:13:19;5.14;;;4.58;;
71172;SDS011;58875;51.996;4.504;2023-05-24T12:15:52;5.10;;;4.57;;
71172;SDS011;58875;51.996;4.504;2023-05-24T12:18:19;4.68;;;4.23;;
71172;SDS011;58875;51.996;4.504;2023-05-24T12:20:47;4.51;;;4.10;;
71172;SDS011;58875;51.996;4.504;2023-05-24T12:23:13;4.78;;;4.32;;
71172;SDS011;58875;51.996;4.504;2023-05-24T12:25:39;4.95;;;4.45;;
71172;SDS011;58875;51.996;4.504;2023-05-24T12:28:05;4.83;;;4.33;;
71172;SDS011;58875;51.996;4.504;2023-05-24T12:30:31;4.88;;;4.34;;
71172;SDS011;58875;51.996;4.504;2023-05-24T12:32:56;5.40;;;4.72;;
71172;SDS011;58875;51.996;4.504;2023-05-24T12:35:22;5.67;;;4.85;;
71172;SDS011;58875;51.996;4.504;2023-05-24T12:37:49;5.59;;;4.84;;
71172;SDS011;58875;51.996;4.504;2023-05-24T12:42:54;4.92;;;4.49;;
71172;SDS011;58875;51.996;4.504;2023-05-24T12:45:22;5.08;;;4.66;;
71172;SDS011;58875;51.996;4.504;2023-05-24T12:47:50;5.09;;;4.58;;
71172;SDS011;58875;51.996;4.504;2023-05-24T12:50:17;5.59;;;4.87;;
71172;SDS011;58875;51.996;4.504;2023-05-24T12:52:44;6.12;;;5.23;;
71172;SDS011;58875;51.996;4.504;2023-05-24T12:55:14;5.47;;;4.83;;
71172;SDS011;58875;51.996;4.504;2023-05-24T12:57:41;5.34;;;4.79;;
71172;SDS011;58875;51.996;4.504;2023-05-24T13:00:07;5.25;;;4.71;;
71172;SDS011;58875;51.996;4.504;2023-05-24T13:02:38;5.41;;;4.79;;
71172;SDS011;58875;51.996;4.504;2023-05-24T13:05:05;5.43;;;4.76;;
71172;SDS011;58875;51.996;4.504;2023-05-24T13:07:31;5.14;;;4.57;;
71172;SDS011;58875;51.996;4.504;2023-05-24T13:10:00;4.76;;;4.38;;
71172;SDS011;58875;51.996;4.504;2023-05-24T13:12:26;4.55;;;4.21;;
71172;SDS011;58875;51.996;4.504;2023-05-24T13:14:52;4.74;;;4.40;;
71172;SDS011;58875;51.996;4.504;2023-05-24T13:17:20;5.30;;;4.82;;
71172;SDS011;58875;51.996;4.504;2023-05-24T13:19:47;5.26;;;4.80;;
71172;SDS011;58875;51.996;4.504;2023-05-24T13:22:36;5.92;;;5.21;;
71172;SDS011;58875;51.996;4.504;2023-05-24T13:25:03;5.86;;;5.06;;
71172;SDS011;58875;51.996;4.504;2023-05-24T13:27:29;5.96;;;5.08;;
71172;SDS011;58875;51.996;4.504;2023-05-24T13:29:58;5.94;;;5.14;;
71172;SDS011;58875;51.996;4.504;2023-05-24T13:32:24;6.16;;;5.37;;
71172;SDS011;58875;51.996;4.504;2023-05-24T13:34:52;5.22;;;4.69;;
71172;SDS011;58875;51.996;4.504;2023-05-24T13:37:18;5.14;;;4.61;;
71172;SDS011;58875;51.996;4.504;2023-05-24T13:39:44;5.80;;;5.11;;
71172;SDS011;58875;51.996;4.504;2023-05-24T13:42:12;5.44;;;4.77;;
71172;SDS011;58875;51.996;4.504;2023-05-24T13:44:38;5.59;;;4.89;;
71172;SDS011;58875;51.996;4.504;2023-05-24T13:47:07;5.42;;;4.76;;
71172;SDS011;58875;51.996;4.504;2023-05-24T13:49:33;5.56;;;4.93;;
71172;SDS011;58875;51.996;4.504;2023-05-24T13:51:59;5.58;;;5.04;;
71172;SDS011;58875;51.996;4.504;2023-05-24T13:54:25;5.27;;;4.82;;
71172;SDS011;58875;51.996;4.504;2023-05-24T13:56:51;5.96;;;5.50;;
71172;SDS011;58875;51.996;4.504;2023-05-24T13:59:21;5.42;;;5.18;;
71172;SDS011;58875;51.996;4.504;2023-05-24T14:01:47;5.35;;;5.03;;
71172;SDS011;58875;51.996;4.504;2023-05-24T14:04:18;5.82;;;5.47;;
71172;SDS011;58875;51.996;4.504;2023-05-24T14:06:47;5.42;;;5.21;;
71172;SDS011;58875;51.996;4.504;2023-05-24T14:09:16;5.39;;;5.21;;
71172;SDS011;58875;51.996;4.504;2023-05-24T14:11:42;5.38;;;5.07;;
71172;SDS011;58875;51.996;4.504;2023-05-24T14:14:09;4.86;;;4.60;;
71172;SDS011;58875;51.996;4.504;2023-05-24T14:16:37;5.11;;;4.72;;
71172;SDS011;58875;51.996;4.504;2023-05-24T14:19:11;5.38;;;4.92;;
71172;SDS011;58875;51.996;4.504;2023-05-24T14:21:37;5.20;;;4.79;;
71172;SDS011;58875;51.996;4.504;2023-05-24T14:24:05;5.26;;;4.87;;
71172;SDS011;58875;51.996;4.504;2023-05-24T14:26:31;4.92;;;4.67;;
71172;SDS011;58875;51.996;4.504;2023-05-24T14:28:57;4.88;;;4.54;;
71172;SDS011;58875;51.996;4.504;2023-05-24T14:31:29;5.49;;;4.99;;
71172;SDS011;58875;51.996;4.504;2023-05-24T14:33:54;5.52;;;5.05;;
71172;SDS011;58875;51.996;4.504;2023-05-24T14:36:20;5.44;;;5.07;;
71172;SDS011;58875;51.996;4.504;2023-05-24T14:38:46;5.49;;;5.14;;
71172;SDS011;58875;51.996;4.504;2023-05-24T14:41:12;4.76;;;4.52;;
71172;SDS011;58875;51.996;4.504;2023-05-24T14:43:37;4.88;;;4.64;;
71172;SDS011;58875;51.996;4.504;2023-05-24T14:46:07;4.80;;;4.55;;
71172;SDS011;58875;51.996;4.504;2023-05-24T14:48:42;5.36;;;4.94;;
71172;SDS011;58875;51.996;4.504;2023-05-24T14:51:17;5.02;;;4.64;;
71172;SDS011;58875;51.996;4.504;2023-05-24T14:53:46;5.02;;;4.59;;
71172;SDS011;58875;51.996;4.504;2023-05-24T14:56:32;4.92;;;4.48;;
71172;SDS011;58875;51.996;4.504;2023-05-24T14:58:58;4.81;;;4.30;;
71172;SDS011;58875;51.996;4.504;2023-05-24T15:01:30;5.36;;;4.74;;
71172;SDS011;58875;51.996;4.504;2023-05-24T15:04:01;4.99;;;4.43;;
71172;SDS011;58875;51.996;4.504;2023-05-24T15:06:27;5.22;;;4.53;;
71172;SDS011;58875;51.996;4.504;2023-05-24T15:09:04;5.35;;;4.56;;
71172;SDS011;58875;51.996;4.504;2023-05-24T15:11:31;5.47;;;4.65;;
71172;SDS011;58875;51.996;4.504;2023-05-24T15:13:57;5.56;;;4.68;;
71172;SDS011;58875;51.996;4.504;2023-05-24T15:16:32;5.13;;;4.40;;